createdAt,value
2023-05-20T00:00:27.116Z,3.47
2023-05-20T00:01:29.596Z,3.17
2023-05-20T00:02:32.090Z,4.22
2023-05-20T00:03:35.237Z,3.53
2023-05-20T00:04:38.260Z,6.38
2023-05-20T00:05:41.067Z,3.33
2023-05-20T00:06:43.690Z,2.83
2023-05-20T00:07:46.155Z,3.45
2023-05-20T00:08:48.575Z,2.90
2023-05-20T00:09:51.340Z,4.57
2023-05-20T00:10:54.118Z,3.58
2023-05-20T00:11:56.816Z,2.47
2023-05-20T00:12:59.238Z,2.90
2023-05-20T00:14:02.011Z,4.28
2023-05-20T00:15:05.753Z,3.60
2023-05-20T00:16:08.470Z,2.70
2023-05-20T00:17:11.133Z,2.75
2023-05-20T00:18:14.069Z,3.25
2023-05-20T00:19:16.756Z,2.45
2023-05-20T00:20:20.014Z,4.25
2023-05-20T00:21:22.800Z,3.75
2023-05-20T00:22:25.370Z,8.55
2023-05-20T00:23:28.005Z,3.42
2023-05-20T00:24:30.452Z,3.30
2023-05-20T00:25:33.127Z,4.60
2023-05-20T00:26:36.454Z,2.40
2023-05-20T00:27:38.868Z,2.10
2023-05-20T00:28:42.105Z,2.97
2023-05-20T00:29:44.481Z,2.60
2023-05-20T00:30:47.105Z,3.08
2023-05-20T00:31:49.633Z,3.38
2023-05-20T00:32:52.085Z,5.47
2023-05-20T00:33:55.897Z,3.03
2023-05-20T00:35:00.888Z,2.10
2023-05-20T00:36:03.548Z,3.75
2023-05-20T00:37:06.189Z,3.45
2023-05-20T00:38:08.671Z,3.05
2023-05-20T00:39:11.227Z,2.72
2023-05-20T00:40:15.727Z,2.80
2023-05-20T00:41:19.200Z,3.33
2023-05-20T00:42:25.495Z,2.65
2023-05-20T00:43:28.049Z,2.25
2023-05-20T00:44:31.210Z,2.95
2023-05-20T00:45:33.986Z,3.03
2023-05-20T00:46:37.281Z,2.20
2023-05-20T00:47:40.091Z,5.10
2023-05-20T00:48:44.583Z,2.10
2023-05-20T00:49:50.951Z,1.95
2023-05-20T00:50:54.874Z,2.47
2023-05-20T00:51:57.290Z,2.28
2023-05-20T00:52:59.934Z,2.03
2023-05-20T00:54:03.768Z,2.30
2023-05-20T00:55:06.505Z,2.50
2023-05-20T00:56:09.205Z,2.80
2023-05-20T00:57:12.596Z,1.95
2023-05-20T00:58:15.351Z,2.50
2023-05-20T00:59:18.056Z,3.13
2023-05-20T01:00:20.804Z,2.40
2023-05-20T01:01:23.370Z,3.15
2023-05-20T01:02:26.213Z,5.05
2023-05-20T01:03:29.862Z,3.22
2023-05-20T01:04:33.881Z,2.30
2023-05-20T01:05:37.664Z,2.35
2023-05-20T01:06:41.232Z,2.33
2023-05-20T01:07:43.847Z,2.50
2023-05-20T01:08:47.076Z,49.33
2023-05-20T01:09:49.566Z,114.97
2023-05-20T01:11:06.470Z,123.32
2023-05-20T01:12:20.766Z,78.40
2023-05-20T01:13:27.359Z,68.18
2023-05-20T01:14:36.131Z,51.92
2023-05-20T01:15:42.204Z,43.28
2023-05-20T01:16:48.129Z,28.83
2023-05-20T01:17:53.044Z,20.83
2023-05-20T01:18:57.414Z,14.10
2023-05-20T01:20:01.809Z,33.42
2023-05-20T01:21:07.893Z,18.95
2023-05-20T01:22:14.619Z,19.40
2023-05-20T01:23:18.658Z,13.75
2023-05-20T01:24:21.134Z,9.07
2023-05-20T01:25:25.252Z,7.85
2023-05-20T01:26:27.797Z,5.78
2023-05-20T01:27:30.391Z,5.18
2023-05-20T01:28:36.909Z,5.63
2023-05-20T01:29:44.206Z,6.55
2023-05-20T01:30:52.439Z,7.22
2023-05-20T01:31:57.440Z,9.25
2023-05-20T01:33:07.573Z,4.88
2023-05-20T01:34:10.694Z,5.50
2023-05-20T01:35:16.028Z,4.22
2023-05-20T01:36:21.193Z,31.02
2023-05-20T01:37:25.421Z,65.13
2023-05-20T01:38:28.656Z,59.60
2023-05-20T01:39:32.072Z,43.45
2023-05-20T01:40:35.117Z,39.47
2023-05-20T01:41:38.181Z,29.40
2023-05-20T01:42:43.127Z,19.00
2023-05-20T01:43:45.726Z,13.98
2023-05-20T01:44:48.898Z,13.23
2023-05-20T01:45:52.199Z,9.80
2023-05-20T01:46:54.677Z,8.98
2023-05-20T01:47:57.152Z,8.95
2023-05-20T01:49:00.747Z,8.32
2023-05-20T01:50:04.292Z,7.13
2023-05-20T01:51:06.820Z,6.78
2023-05-20T01:52:10.310Z,6.70
2023-05-20T01:53:13.389Z,6.30
2023-05-20T01:54:17.406Z,5.38
2023-05-20T01:55:19.986Z,4.72
2023-05-20T01:56:23.213Z,5.80
2023-05-20T01:57:28.413Z,3.90
2023-05-20T01:58:31.453Z,6.03
2023-05-20T01:59:34.139Z,4.88
2023-05-20T02:00:36.960Z,4.78
2023-05-20T02:01:39.824Z,5.60
2023-05-20T02:02:42.416Z,7.03
2023-05-20T02:03:47.420Z,4.57
2023-05-20T02:04:51.373Z,5.70
2023-05-20T02:05:53.832Z,5.53
2023-05-20T02:06:58.485Z,7.03
2023-05-20T02:08:01.349Z,4.35
2023-05-20T02:09:04.010Z,4.60
2023-05-20T02:10:07.467Z,7.78
2023-05-20T02:11:10.206Z,5.43
2023-05-20T02:12:16.767Z,7.30
2023-05-20T02:13:19.515Z,5.57
2023-05-20T02:14:22.110Z,4.43
2023-05-20T02:15:24.585Z,5.80
2023-05-20T02:16:27.109Z,3.85
2023-05-20T02:17:29.736Z,5.25
2023-05-20T02:18:35.268Z,3.15
2023-05-20T02:19:37.813Z,3.60
2023-05-20T02:20:41.353Z,4.97
2023-05-20T02:21:45.606Z,6.55
2023-05-20T02:22:49.217Z,5.03
2023-05-20T02:23:52.338Z,3.72
2023-05-20T02:24:54.705Z,5.40
2023-05-20T02:25:57.517Z,4.97
2023-05-20T02:27:00.187Z,3.65
2023-05-20T02:28:05.805Z,4.50
2023-05-20T02:29:08.810Z,5.65
2023-05-20T02:30:11.554Z,4.47
2023-05-20T02:31:14.052Z,5.20
2023-05-20T02:32:16.515Z,5.53
2023-05-20T02:33:20.538Z,4.93
2023-05-20T02:34:25.921Z,3.78
2023-05-20T02:35:28.446Z,4.78
2023-05-20T02:36:32.318Z,7.82
2023-05-20T02:37:34.731Z,19.27
2023-05-20T02:38:37.155Z,29.90
2023-05-20T02:39:39.587Z,28.45
2023-05-20T02:40:44.987Z,19.55
2023-05-20T02:41:47.381Z,15.18
2023-05-20T02:42:50.928Z,15.43
2023-05-20T02:43:54.282Z,11.77
2023-05-20T02:44:58.752Z,7.95
2023-05-20T02:46:01.224Z,5.75
2023-05-20T02:47:03.920Z,5.50
2023-05-20T02:48:06.881Z,4.82
2023-05-20T02:49:09.573Z,5.85
2023-05-20T02:50:12.044Z,4.55
2023-05-20T02:51:14.592Z,5.05
2023-05-20T02:52:17.718Z,4.22
2023-05-20T02:53:21.039Z,4.85
2023-05-20T02:54:23.765Z,4.68
2023-05-20T02:55:26.223Z,3.45
2023-05-20T02:56:29.028Z,4.63
2023-05-20T02:57:31.520Z,3.25
2023-05-20T02:58:37.874Z,4.72
2023-05-20T02:59:41.097Z,4.03
2023-05-20T03:00:43.682Z,5.10
2023-05-20T03:01:46.999Z,26.00
2023-05-20T03:02:49.593Z,20.55
2023-05-20T03:03:52.525Z,21.98
2023-05-20T03:04:55.666Z,19.05
2023-05-20T03:05:58.177Z,17.70
2023-05-20T03:07:01.001Z,15.27
2023-05-20T03:08:14.932Z,11.48
2023-05-20T03:09:18.683Z,9.68
2023-05-20T03:10:21.466Z,10.60
2023-05-20T03:11:23.893Z,9.45
2023-05-20T03:12:26.815Z,9.68
2023-05-20T03:13:29.239Z,7.07
2023-05-20T03:14:33.884Z,9.68
2023-05-20T03:15:40.345Z,9.88
2023-05-20T03:16:44.367Z,7.57
2023-05-20T03:17:48.178Z,7.85
2023-05-20T03:18:50.772Z,6.72
2023-05-20T03:19:53.273Z,7.78
2023-05-20T03:20:55.729Z,5.93
2023-05-20T03:21:58.697Z,7.93
2023-05-20T03:23:02.130Z,7.22
2023-05-20T03:24:05.063Z,8.05
2023-05-20T03:25:08.113Z,6.03
2023-05-20T03:26:10.732Z,7.07
2023-05-20T03:27:13.450Z,6.55
2023-05-20T03:28:16.562Z,5.85
2023-05-20T03:29:19.510Z,5.63
2023-05-20T03:30:22.455Z,5.38
2023-05-20T03:31:27.487Z,5.65
2023-05-20T03:32:30.945Z,4.72
2023-05-20T03:33:36.870Z,9.15
2023-05-20T03:34:39.650Z,5.03
2023-05-20T03:35:42.428Z,5.50
2023-05-20T03:36:45.193Z,5.88
2023-05-20T03:37:47.805Z,8.63
2023-05-20T03:38:53.781Z,7.43
2023-05-20T03:39:56.248Z,13.00
2023-05-20T03:40:59.382Z,17.70
2023-05-20T03:42:01.977Z,16.73
2023-05-20T03:43:04.735Z,18.50
2023-05-20T03:44:07.250Z,18.40
2023-05-20T03:45:10.097Z,17.23
2023-05-20T03:46:20.187Z,12.17
2023-05-20T03:47:25.311Z,10.70
2023-05-20T03:48:28.778Z,11.13
2023-05-20T03:49:31.868Z,9.80
2023-05-20T03:50:37.986Z,7.93
2023-05-20T03:51:40.692Z,7.55
2023-05-20T03:52:49.964Z,5.38
2023-05-20T03:53:55.695Z,7.32
2023-05-20T03:54:58.292Z,5.32
2023-05-20T03:56:01.408Z,6.47
2023-05-20T03:57:04.489Z,5.43
2023-05-20T03:58:06.908Z,4.95
2023-05-20T03:59:10.099Z,6.50
2023-05-20T04:00:15.537Z,5.97
2023-05-20T04:01:21.246Z,5.63
2023-05-20T04:02:23.834Z,7.68
2023-05-20T04:03:28.757Z,5.32
2023-05-20T04:04:32.367Z,21.05
2023-05-20T04:05:37.103Z,5.47
2023-05-20T04:06:46.333Z,5.57
2023-05-20T04:07:49.794Z,3.97
2023-05-20T04:08:54.593Z,4.25
2023-05-20T04:09:59.423Z,5.28
2023-05-20T04:11:02.381Z,5.82
2023-05-20T04:12:06.227Z,5.50
2023-05-20T04:13:11.159Z,4.88
2023-05-20T04:14:13.673Z,4.20
2023-05-20T04:15:16.828Z,4.72
2023-05-20T04:16:30.076Z,3.83
2023-05-20T04:17:33.056Z,4.25
2023-05-20T04:18:39.158Z,4.40
2023-05-20T04:19:42.027Z,5.40
2023-05-20T04:20:45.732Z,3.15
2023-05-20T04:21:50.968Z,2.78
2023-05-20T04:22:54.376Z,3.72
2023-05-20T04:23:57.365Z,3.60
2023-05-20T04:25:00.314Z,2.83
2023-05-20T04:26:02.912Z,4.78
2023-05-20T04:27:07.799Z,3.58
2023-05-20T04:28:10.762Z,3.72
2023-05-20T04:29:13.341Z,4.10
2023-05-20T04:30:19.886Z,5.57
2023-05-20T04:31:27.034Z,4.50
2023-05-20T04:32:30.258Z,5.30
2023-05-20T04:33:37.797Z,4.15
2023-05-20T04:34:41.170Z,4.40
2023-05-20T04:35:46.242Z,4.00
2023-05-20T04:36:49.055Z,4.40
2023-05-20T04:37:54.304Z,3.38
2023-05-20T04:38:57.561Z,3.92
2023-05-20T04:40:03.233Z,4.78
2023-05-20T04:41:07.092Z,3.50
2023-05-20T04:42:09.987Z,2.80
2023-05-20T04:43:14.949Z,3.80
2023-05-20T04:44:17.413Z,6.13
2023-05-20T04:45:20.729Z,2.38
2023-05-20T04:46:23.245Z,2.83
2023-05-20T04:47:26.645Z,3.67
2023-05-20T04:48:29.131Z,3.25
2023-05-20T04:49:32.465Z,4.45
2023-05-20T04:50:36.996Z,3.22
2023-05-20T04:51:42.043Z,4.18
2023-05-20T04:52:45.440Z,5.03
2023-05-20T04:53:48.181Z,3.22
2023-05-20T04:54:51.924Z,3.92
2023-05-20T04:55:57.130Z,3.17
2023-05-20T04:57:01.465Z,2.83
2023-05-20T04:58:05.807Z,3.63
2023-05-20T04:59:09.641Z,5.50
2023-05-20T05:00:13.323Z,3.00
2023-05-20T05:01:16.560Z,3.20
2023-05-20T05:02:19.066Z,5.13
2023-05-20T05:03:21.611Z,5.90
2023-05-20T05:04:24.872Z,4.90
2023-05-20T05:05:27.334Z,4.30
2023-05-20T05:06:30.861Z,3.58
2023-05-20T05:07:34.750Z,5.45
2023-05-20T05:08:37.239Z,4.88
2023-05-20T05:09:39.637Z,3.78
2023-05-20T05:10:42.212Z,2.88
2023-05-20T05:11:45.678Z,2.63
2023-05-20T05:12:48.405Z,3.30
2023-05-20T05:13:52.603Z,2.75
2023-05-20T05:14:58.802Z,4.47
2023-05-20T05:16:02.560Z,3.80
2023-05-20T05:17:07.034Z,7.55
2023-05-20T05:18:09.665Z,3.83
2023-05-20T05:19:13.665Z,4.22
2023-05-20T05:20:16.542Z,6.70
2023-05-20T05:21:20.288Z,7.75
2023-05-20T05:22:23.832Z,5.80
2023-05-20T05:23:27.056Z,5.38
2023-05-20T05:24:29.958Z,8.75
2023-05-20T05:25:33.386Z,7.82
2023-05-20T05:26:35.924Z,7.18
2023-05-20T05:27:39.688Z,4.55
2023-05-20T05:28:43.489Z,5.57
2023-05-20T05:29:46.720Z,6.82
2023-05-20T05:30:49.310Z,5.28
2023-05-20T05:31:52.531Z,8.15
2023-05-20T05:32:55.112Z,4.25
2023-05-20T05:33:58.564Z,4.82
2023-05-20T05:35:01.158Z,2.22
2023-05-20T05:36:05.524Z,2.53
2023-05-20T05:37:08.626Z,3.05
2023-05-20T05:38:11.270Z,3.13
2023-05-20T05:39:13.717Z,3.72
2023-05-20T05:40:16.359Z,3.50
2023-05-20T05:41:19.005Z,2.88
2023-05-20T05:42:21.483Z,3.10
2023-05-20T05:43:24.260Z,2.47
2023-05-20T05:44:28.441Z,2.63
2023-05-20T05:45:31.285Z,3.25
2023-05-20T05:46:34.935Z,4.28
2023-05-20T05:47:37.529Z,2.20
2023-05-20T05:48:40.066Z,1.98
2023-05-20T05:49:43.579Z,3.53
2023-05-20T05:50:46.640Z,3.20
2023-05-20T05:51:51.634Z,2.33
2023-05-20T05:52:54.750Z,2.28
2023-05-20T05:53:57.452Z,3.30
2023-05-20T05:55:00.136Z,5.03
2023-05-20T05:56:02.769Z,8.15
2023-05-20T05:57:06.607Z,22.08
2023-05-20T05:58:10.219Z,32.25
2023-05-20T05:59:13.129Z,36.30
2023-05-20T06:00:16.768Z,42.33
2023-05-20T06:01:22.216Z,34.65
2023-05-20T06:02:25.771Z,29.08
2023-05-20T06:03:30.121Z,30.48
2023-05-20T06:04:32.791Z,28.13
2023-05-20T06:05:35.646Z,27.65
2023-05-20T06:06:38.753Z,24.65
2023-05-20T06:07:41.187Z,23.13
2023-05-20T06:08:43.628Z,20.27
2023-05-20T06:09:47.892Z,23.48
2023-05-20T06:10:51.068Z,21.65
2023-05-20T06:11:53.523Z,21.27
2023-05-20T06:12:56.293Z,21.77
2023-05-20T06:14:00.110Z,20.17
2023-05-20T06:15:08.188Z,22.15
2023-05-20T06:16:11.884Z,20.92
2023-05-20T06:17:14.589Z,20.50
2023-05-20T06:18:17.731Z,19.33
2023-05-20T06:19:20.445Z,20.77
2023-05-20T06:20:22.915Z,18.95
2023-05-20T06:21:25.927Z,21.98
2023-05-20T06:22:28.779Z,17.95
2023-05-20T06:23:31.489Z,16.45
2023-05-20T06:24:36.661Z,17.20
2023-05-20T06:25:39.268Z,16.83
2023-05-20T06:26:42.892Z,18.00
2023-05-20T06:27:45.438Z,16.88
2023-05-20T06:28:51.730Z,17.25
2023-05-20T06:29:54.206Z,16.98
2023-05-20T06:30:57.544Z,15.70
2023-05-20T06:32:01.849Z,12.57
2023-05-20T06:33:04.717Z,12.30
2023-05-20T06:34:07.349Z,16.20
2023-05-20T06:35:12.336Z,13.05
2023-05-20T06:36:15.030Z,15.02
2023-05-20T06:37:17.455Z,10.85
2023-05-20T06:38:20.516Z,13.75
2023-05-20T06:39:23.011Z,12.38
2023-05-20T06:40:27.290Z,11.50
2023-05-20T06:41:33.608Z,15.57
2023-05-20T06:42:44.282Z,15.75
2023-05-20T06:43:50.494Z,15.32
2023-05-20T06:45:13.976Z,19.50
2023-05-20T06:46:25.945Z,15.48
2023-05-20T06:47:36.878Z,15.88
2023-05-20T06:48:40.386Z,15.13
2023-05-20T06:49:47.170Z,14.85
2023-05-20T06:50:50.975Z,16.23
2023-05-20T06:51:53.828Z,15.20
2023-05-20T06:52:56.422Z,14.40
2023-05-20T06:53:58.854Z,14.55
2023-05-20T06:55:01.368Z,15.05
2023-05-20T06:56:03.958Z,14.25
2023-05-20T06:57:08.988Z,14.85
2023-05-20T06:58:12.372Z,16.13
2023-05-20T06:59:15.589Z,13.57
2023-05-20T07:00:19.060Z,14.02
2023-05-20T07:01:21.700Z,14.20
2023-05-20T07:02:25.253Z,12.85
2023-05-20T07:03:27.763Z,13.40
2023-05-20T07:04:31.102Z,16.48
2023-05-20T07:05:33.953Z,10.52
2023-05-20T07:06:36.704Z,12.05
2023-05-20T07:07:39.509Z,12.43
2023-05-20T07:08:42.444Z,11.27
2023-05-20T07:09:45.507Z,13.13
2023-05-20T07:10:48.672Z,13.38
2023-05-20T07:11:54.776Z,14.68
2023-05-20T07:12:57.288Z,12.13
2023-05-20T07:13:59.860Z,15.05
2023-05-20T07:15:03.337Z,18.05
2023-05-20T07:16:07.592Z,10.82
2023-05-20T07:17:13.349Z,13.88
2023-05-20T07:18:16.280Z,16.05
2023-05-20T07:19:20.223Z,14.15
2023-05-20T07:20:22.761Z,13.55
2023-05-20T07:21:25.650Z,16.15
2023-05-20T07:22:48.603Z,13.00
2023-05-20T07:23:56.939Z,15.43
2023-05-20T07:25:01.162Z,12.38
2023-05-20T07:26:03.929Z,15.18
2023-05-20T07:27:06.815Z,13.43
2023-05-20T07:28:09.250Z,17.88
2023-05-20T07:29:12.446Z,10.52
2023-05-20T07:30:15.116Z,13.10
2023-05-20T07:31:24.106Z,12.30
2023-05-20T07:32:26.568Z,12.70
2023-05-20T07:33:29.973Z,11.23
2023-05-20T07:34:33.346Z,11.95
2023-05-20T07:35:37.001Z,12.82
2023-05-20T07:36:41.143Z,11.43
2023-05-20T07:37:46.470Z,10.57
2023-05-20T07:39:01.417Z,10.35
2023-05-20T07:40:10.272Z,11.35
2023-05-20T07:41:14.525Z,11.68
2023-05-20T07:42:17.286Z,10.25
2023-05-20T07:43:22.846Z,12.50
2023-05-20T07:44:26.579Z,10.80
2023-05-20T07:45:29.550Z,10.60
2023-05-20T07:46:33.093Z,12.57
2023-05-20T07:47:36.651Z,10.57
2023-05-20T07:48:39.096Z,11.90
2023-05-20T07:49:41.927Z,10.18
2023-05-20T07:50:44.913Z,12.32
2023-05-20T07:51:48.017Z,10.75
2023-05-20T07:53:16.370Z,12.35
2023-05-20T07:54:19.984Z,12.35
2023-05-20T07:55:24.794Z,13.63
2023-05-20T07:56:28.386Z,12.27
2023-05-20T07:57:30.839Z,17.35
2023-05-20T07:58:33.758Z,12.80
2023-05-20T07:59:36.456Z,12.50
2023-05-20T08:00:38.932Z,11.48
2023-05-20T08:01:43.269Z,13.93
2023-05-20T08:02:47.253Z,10.13
2023-05-20T08:03:54.752Z,11.50
2023-05-20T08:04:59.398Z,11.05
2023-05-20T08:06:03.059Z,9.88
2023-05-20T08:07:06.159Z,10.73
2023-05-20T08:09:31.748Z,9.32
2023-05-20T08:10:34.194Z,8.15
2023-05-20T08:11:36.834Z,8.52
2023-05-20T08:12:39.857Z,11.25
2023-05-20T08:13:42.434Z,9.73
2023-05-20T08:14:45.352Z,10.98
2023-05-20T08:15:48.739Z,8.35
2023-05-20T08:16:53.872Z,6.97
2023-05-20T08:17:57.282Z,7.30
2023-05-20T08:19:00.022Z,8.82
2023-05-20T08:20:02.600Z,10.68
2023-05-20T08:21:08.191Z,10.15
2023-05-20T08:22:10.808Z,8.70
2023-05-20T08:23:13.400Z,10.07
2023-05-20T08:24:15.962Z,7.15
2023-05-20T08:25:20.059Z,10.98
2023-05-20T08:26:23.155Z,7.90
2023-05-20T08:27:26.520Z,9.00
2023-05-20T08:28:30.125Z,15.48
2023-05-20T08:29:33.510Z,7.65
2023-05-20T08:30:36.544Z,6.72
2023-05-20T08:31:38.960Z,6.60
2023-05-20T08:32:42.607Z,5.75
2023-05-20T08:33:46.491Z,5.55
2023-05-20T08:34:49.270Z,5.65
2023-05-20T08:35:52.240Z,7.18
2023-05-20T08:36:54.580Z,6.72
2023-05-20T08:37:57.016Z,8.65
2023-05-20T08:38:59.878Z,9.90
2023-05-20T08:40:05.897Z,8.02
2023-05-20T08:41:08.238Z,6.72
2023-05-20T08:42:13.763Z,5.30
2023-05-20T08:43:16.425Z,8.00
2023-05-20T08:44:20.816Z,8.32
2023-05-20T08:45:27.828Z,9.38
2023-05-20T08:46:35.801Z,13.35
2023-05-20T08:47:42.944Z,6.53
2023-05-20T08:48:45.848Z,6.88
2023-05-20T08:49:49.773Z,6.25
2023-05-20T08:50:53.382Z,5.30
2023-05-20T08:51:56.315Z,7.20
2023-05-20T08:52:59.917Z,7.53
2023-05-20T08:54:03.706Z,12.80
2023-05-20T08:55:09.579Z,6.15
2023-05-20T08:56:14.009Z,7.80
2023-05-20T08:57:16.449Z,7.50
2023-05-20T08:58:19.319Z,6.50
2023-05-20T08:59:22.013Z,6.22
2023-05-20T09:00:29.043Z,8.07
2023-05-20T09:01:32.564Z,8.50
2023-05-20T09:02:38.388Z,5.88
2023-05-20T09:03:40.853Z,6.70
2023-05-20T09:04:43.304Z,9.23
2023-05-20T09:05:46.381Z,5.13
2023-05-20T09:06:51.183Z,7.28
2023-05-20T09:07:53.614Z,6.75
2023-05-20T09:08:56.069Z,5.43
2023-05-20T09:09:58.973Z,6.68
2023-05-20T09:11:01.840Z,5.40
2023-05-20T09:12:05.531Z,6.15
2023-05-20T09:13:10.311Z,6.80
2023-05-20T09:14:16.215Z,6.13
2023-05-20T09:15:21.586Z,5.90
2023-05-20T09:16:26.812Z,8.27
2023-05-20T09:20:54.836Z,7.13
2023-05-20T09:21:58.157Z,7.13
2023-05-20T09:23:01.966Z,5.32
2023-05-20T09:24:04.690Z,7.15
2023-05-20T09:25:08.019Z,7.43
2023-05-20T09:26:10.812Z,6.60
2023-05-20T09:27:13.486Z,7.28
2023-05-20T09:28:16.294Z,6.43
2023-05-20T09:29:21.495Z,7.32
2023-05-20T09:30:24.610Z,5.22
2023-05-20T09:31:29.272Z,8.02
2023-05-20T09:32:31.662Z,4.60
2023-05-20T09:33:35.628Z,5.15
2023-05-20T09:34:38.800Z,7.43
2023-05-20T09:35:41.955Z,5.93
2023-05-20T09:36:45.299Z,5.80
2023-05-20T09:37:48.457Z,5.85
2023-05-20T09:38:53.554Z,4.57
2023-05-20T09:39:59.637Z,7.07
2023-05-20T09:41:07.991Z,4.38
2023-05-20T09:42:21.897Z,5.80
2023-05-20T09:43:24.364Z,12.23
2023-05-20T09:44:29.091Z,7.53
2023-05-20T09:45:31.688Z,8.68
2023-05-20T09:46:35.823Z,4.93
2023-05-20T09:47:40.916Z,5.78
2023-05-20T09:48:44.832Z,5.80
2023-05-20T09:49:47.317Z,3.90
2023-05-20T09:50:51.723Z,4.47
2023-05-20T09:51:54.694Z,7.43
2023-05-20T09:52:57.276Z,9.07
2023-05-20T09:54:00.490Z,5.82
2023-05-20T09:55:05.776Z,7.47
2023-05-20T09:56:08.467Z,5.32
2023-05-20T09:57:11.622Z,5.53
2023-05-20T09:58:16.259Z,8.35
2023-05-20T09:59:22.223Z,5.13
2023-05-20T10:00:24.559Z,7.72
2023-05-20T10:01:26.959Z,4.43
2023-05-20T10:02:29.807Z,3.80
2023-05-20T10:03:33.432Z,3.72
2023-05-20T10:04:42.745Z,4.82
2023-05-20T10:05:57.273Z,5.88
2023-05-20T10:07:37.905Z,7.45
2023-05-20T10:08:55.755Z,4.72
2023-05-20T10:10:14.581Z,7.38
2023-05-20T10:11:37.741Z,4.57
2023-05-20T10:12:53.072Z,4.60
2023-05-20T10:14:17.202Z,3.90
2023-05-20T10:15:39.140Z,7.93
2023-05-20T10:16:48.330Z,6.15
2023-05-20T10:18:14.782Z,11.60
2023-05-20T10:19:31.036Z,10.80
2023-05-20T10:20:44.300Z,11.00
2023-05-20T10:21:57.877Z,10.90
2023-05-20T10:23:00.235Z,9.57
2023-05-20T10:24:12.069Z,8.90
2023-05-20T10:25:26.813Z,6.55
2023-05-20T10:26:38.978Z,6.47
2023-05-20T10:27:48.323Z,4.78
2023-05-20T10:28:50.687Z,3.97
2023-05-20T10:29:57.656Z,4.53
2023-05-20T10:31:00.931Z,7.28
2023-05-20T10:32:04.067Z,5.65
2023-05-20T10:33:07.203Z,4.85
2023-05-20T10:34:22.201Z,5.18
2023-05-20T10:35:27.200Z,2.47
2023-05-20T10:36:31.895Z,2.30
2023-05-20T10:37:42.323Z,4.43
2023-05-20T10:38:58.804Z,3.88
2023-05-20T10:40:13.052Z,6.72
2023-05-20T10:41:21.562Z,4.55
2023-05-20T10:42:32.637Z,3.33
2023-05-20T10:43:35.095Z,4.82
2023-05-20T10:44:47.776Z,2.85
2023-05-20T10:45:55.486Z,3.22
2023-05-20T10:48:27.799Z,3.38
2023-05-20T10:49:35.256Z,3.15
2023-05-20T10:50:40.198Z,5.10
2023-05-20T10:51:45.029Z,4.38
2023-05-20T10:52:47.429Z,4.00
2023-05-20T10:53:54.227Z,4.28
2023-05-20T10:54:57.702Z,7.25
2023-05-20T10:56:00.141Z,3.05
2023-05-20T10:57:07.685Z,2.83
2023-05-20T10:58:10.221Z,3.85
2023-05-20T10:59:12.750Z,1.83
2023-05-20T11:00:16.629Z,3.38
2023-05-20T11:01:23.995Z,3.28
2023-05-20T11:02:28.432Z,3.35
2023-05-20T11:03:31.195Z,3.85
2023-05-20T11:04:33.765Z,3.72
2023-05-20T11:05:36.688Z,4.82
2023-05-20T11:06:39.040Z,4.65
2023-05-20T11:07:41.421Z,3.97
2023-05-20T11:08:44.631Z,3.45
2023-05-20T11:09:50.369Z,3.00
2023-05-20T11:10:52.774Z,3.75
2023-05-20T11:11:55.435Z,3.47
2023-05-20T11:12:58.120Z,3.00
2023-05-20T11:14:00.765Z,2.88
2023-05-20T11:15:03.547Z,3.10
2023-05-20T11:16:06.292Z,4.47
2023-05-20T11:17:08.672Z,4.18
2023-05-20T11:18:12.433Z,4.20
2023-05-20T11:19:16.471Z,6.05
2023-05-20T11:20:19.274Z,6.13
2023-05-20T11:21:21.633Z,2.33
2023-05-20T11:22:23.966Z,4.95
2023-05-20T11:23:27.924Z,6.10
2023-05-20T11:24:30.672Z,5.60
2023-05-20T11:25:33.518Z,5.72
2023-05-20T11:26:37.143Z,3.67
2023-05-20T11:27:40.430Z,2.38
2023-05-20T11:28:43.092Z,2.60
2023-05-20T11:29:45.658Z,3.13
2023-05-20T11:30:48.971Z,4.35
2023-05-20T11:31:51.949Z,7.63
2023-05-20T11:33:01.517Z,5.65
2023-05-20T11:34:04.194Z,4.45
2023-05-20T11:35:07.983Z,3.70
2023-05-20T11:36:23.893Z,3.85
2023-05-20T11:37:30.299Z,3.35
2023-05-20T11:38:32.682Z,2.90
2023-05-20T11:39:35.193Z,5.00
2023-05-20T11:40:49.978Z,4.18
2023-05-20T11:41:53.956Z,3.38
2023-05-20T11:42:59.718Z,4.65
2023-05-20T11:44:02.121Z,8.32
2023-05-20T11:45:05.059Z,3.20
2023-05-20T11:46:07.373Z,3.95
2023-05-20T11:47:09.839Z,3.88
2023-05-20T11:48:12.712Z,7.40
2023-05-20T11:49:16.094Z,4.00
2023-05-20T11:50:20.096Z,3.35
2023-05-20T11:51:25.642Z,3.00
2023-05-20T11:52:29.207Z,2.88
2023-05-20T11:53:32.073Z,2.72
2023-05-20T11:54:36.302Z,4.50
2023-05-20T11:55:50.045Z,5.13
2023-05-20T11:56:54.626Z,4.05
2023-05-20T11:57:58.193Z,4.15
2023-05-20T11:59:01.562Z,3.35
2023-05-20T12:00:07.375Z,4.70
2023-05-20T12:01:21.624Z,5.60
2023-05-20T12:02:24.921Z,2.67
2023-05-20T12:03:27.512Z,4.05
2023-05-20T12:04:29.941Z,3.70
2023-05-20T12:05:32.411Z,3.78
2023-05-20T12:06:35.149Z,4.20
2023-05-20T12:07:38.397Z,5.72
2023-05-20T12:08:40.774Z,3.38
2023-05-20T12:09:43.117Z,4.38
2023-05-20T12:10:45.378Z,3.30
2023-05-20T12:11:47.693Z,2.63
2023-05-20T12:12:49.985Z,2.90
2023-05-20T12:13:52.764Z,2.60
2023-05-20T12:14:55.115Z,3.00
2023-05-20T12:15:57.705Z,3.47
2023-05-20T12:17:00.151Z,3.00
2023-05-20T12:18:02.646Z,2.95
2023-05-20T12:19:05.447Z,2.33
2023-05-20T12:20:08.351Z,3.38
2023-05-20T12:21:10.845Z,2.78
2023-05-20T12:22:13.146Z,4.07
2023-05-20T12:23:15.648Z,3.20
2023-05-20T12:24:17.972Z,3.83
2023-05-20T12:25:21.489Z,3.35
2023-05-20T12:26:24.981Z,8.43
2023-05-20T12:27:27.299Z,4.93
2023-05-20T12:28:29.666Z,3.10
2023-05-20T12:29:32.792Z,4.85
2023-05-20T12:30:35.348Z,4.05
2023-05-20T12:31:38.129Z,3.50
2023-05-20T12:32:41.609Z,3.85
2023-05-20T12:33:44.761Z,4.53
2023-05-20T12:34:47.259Z,4.97
2023-05-20T12:35:50.034Z,3.67
2023-05-20T12:36:52.449Z,4.47
2023-05-20T12:37:54.985Z,5.65
2023-05-20T12:38:57.305Z,6.03
2023-05-20T12:40:00.747Z,7.53
2023-05-20T12:41:03.169Z,6.43
2023-05-20T12:42:05.736Z,5.35
2023-05-20T12:43:08.201Z,4.70
2023-05-20T12:44:10.858Z,4.40
2023-05-20T12:45:13.491Z,3.55
2023-05-20T12:46:15.974Z,9.18
2023-05-20T12:47:18.961Z,4.32
2023-05-20T12:48:21.385Z,4.22
2023-05-20T12:49:23.879Z,4.22
2023-05-20T12:50:27.650Z,5.78
2023-05-20T12:51:30.041Z,5.32
2023-05-20T12:52:32.488Z,2.88
2023-05-20T12:53:34.926Z,3.63
2023-05-20T12:54:37.330Z,6.03
2023-05-20T12:55:40.320Z,2.97
2023-05-20T12:56:42.731Z,3.17
2023-05-20T12:57:46.357Z,3.45
2023-05-20T12:58:49.000Z,3.95
2023-05-20T12:59:51.499Z,3.20
2023-05-20T13:00:53.974Z,3.67
2023-05-20T13:01:56.734Z,3.33
2023-05-20T13:02:59.293Z,4.45
2023-05-20T13:04:02.788Z,3.03
2023-05-20T13:05:06.601Z,3.42
2023-05-20T13:06:09.680Z,4.65
2023-05-20T13:07:13.221Z,3.88
2023-05-20T13:08:15.839Z,3.50
2023-05-20T13:09:18.375Z,2.90
2023-05-20T13:10:21.826Z,3.33
2023-05-20T13:11:24.573Z,3.47
2023-05-20T13:12:27.054Z,4.60
2023-05-20T13:13:29.381Z,3.83
2023-05-20T13:14:31.969Z,4.05
2023-05-20T13:15:34.761Z,4.22
2023-05-20T13:16:37.475Z,3.38
2023-05-20T13:17:41.417Z,4.00
2023-05-20T13:18:44.797Z,4.22
2023-05-20T13:19:47.188Z,7.70
2023-05-20T13:20:49.719Z,9.55
2023-05-20T13:21:54.506Z,6.43
2023-05-20T13:22:57.068Z,7.88
2023-05-20T13:24:00.995Z,6.07
2023-05-20T13:25:04.290Z,7.30
2023-05-20T13:26:06.760Z,5.53
2023-05-20T13:27:09.154Z,4.93
2023-05-20T13:28:16.589Z,5.07
2023-05-20T13:29:19.966Z,5.30
2023-05-20T13:30:22.400Z,4.75
2023-05-20T13:31:24.930Z,3.40
2023-05-20T13:32:27.744Z,4.07
2023-05-20T13:33:30.704Z,4.65
2023-05-20T13:34:33.167Z,6.30
2023-05-20T13:35:35.626Z,4.70
2023-05-20T13:36:38.074Z,3.95
2023-05-20T13:37:40.479Z,4.93
2023-05-20T13:38:42.895Z,3.72
2023-05-20T13:39:45.247Z,6.82
2023-05-20T13:40:48.884Z,3.17
2023-05-20T13:41:53.598Z,3.15
2023-05-20T13:42:56.362Z,3.05
2023-05-20T13:43:58.864Z,5.13
2023-05-20T13:45:01.246Z,6.18
2023-05-20T13:46:03.778Z,3.85
2023-05-20T13:47:06.184Z,5.88
2023-05-20T13:48:08.867Z,4.25
2023-05-20T13:49:11.350Z,4.93
2023-05-20T13:50:13.791Z,6.47
2023-05-20T13:51:16.437Z,6.43
2023-05-20T13:52:19.677Z,3.78
2023-05-20T13:53:22.459Z,4.95
2023-05-20T13:54:25.033Z,6.20
2023-05-20T13:55:28.484Z,6.25
2023-05-20T13:56:32.001Z,6.00
2023-05-20T13:57:34.661Z,4.40
2023-05-20T13:58:37.423Z,4.45
2023-05-20T13:59:39.859Z,4.57
2023-05-20T14:00:42.237Z,6.93
2023-05-20T14:01:45.529Z,4.10
2023-05-20T14:02:48.761Z,4.38
2023-05-20T14:03:51.552Z,5.65
2023-05-20T14:04:53.913Z,5.43
2023-05-20T14:05:56.426Z,4.30
2023-05-20T14:07:00.377Z,9.27
2023-05-20T14:08:03.114Z,4.57
2023-05-20T14:09:07.117Z,3.88
2023-05-20T14:10:09.686Z,4.63
2023-05-20T14:11:12.587Z,5.30
2023-05-20T14:12:15.024Z,5.13
2023-05-20T14:13:17.472Z,3.67